createdAt,value
2022-10-19T00:00:50.554Z,13.77
2022-10-19T00:03:20.698Z,13.62
2022-10-19T00:05:49.818Z,13.65
2022-10-19T00:08:16.415Z,13.38
2022-10-19T00:10:43.071Z,13.60
2022-10-19T00:13:09.820Z,13.40
2022-10-19T00:15:45.759Z,13.29
2022-10-19T00:18:12.557Z,13.42
2022-10-19T00:20:39.717Z,13.57
2022-10-19T00:23:06.462Z,13.57
2022-10-19T00:25:33.070Z,13.81
2022-10-19T00:28:00.518Z,13.45
2022-10-19T00:30:27.123Z,13.74
2022-10-19T00:32:53.753Z,13.58
2022-10-19T00:35:20.391Z,13.61
2022-10-19T00:37:47.009Z,13.38
2022-10-19T00:40:13.697Z,12.95
2022-10-19T00:42:40.335Z,13.06
2022-10-19T00:45:19.670Z,13.13
2022-10-19T00:47:47.184Z,13.25
2022-10-19T00:50:14.851Z,12.81
2022-10-19T00:52:41.832Z,12.71
2022-10-19T00:55:09.261Z,12.65
2022-10-19T00:57:36.060Z,12.44
2022-10-19T01:00:07.308Z,12.65
2022-10-19T01:02:34.465Z,12.49
2022-10-19T01:05:19.981Z,12.61
2022-10-19T01:07:46.624Z,12.93
2022-10-19T01:10:13.394Z,12.77
2022-10-19T01:12:40.003Z,12.40
2022-10-19T01:15:06.701Z,12.41
2022-10-19T01:17:39.337Z,12.14
2022-10-19T01:20:11.733Z,12.28
2022-10-19T01:22:50.615Z,12.50
2022-10-19T01:25:20.281Z,12.33
2022-10-19T01:28:05.414Z,11.93
2022-10-19T01:30:34.744Z,12.39
2022-10-19T01:33:06.856Z,11.97
2022-10-19T01:35:37.914Z,12.42
2022-10-19T01:38:14.558Z,12.54
2022-10-19T01:40:49.219Z,12.60
2022-10-19T01:43:18.881Z,12.52
2022-10-19T01:46:13.902Z,12.46
2022-10-19T01:48:42.822Z,12.43
2022-10-19T01:51:18.473Z,11.61
2022-10-19T01:53:47.757Z,12.01
2022-10-19T01:56:17.158Z,11.83
2022-10-19T01:58:45.213Z,12.32
2022-10-19T02:01:12.686Z,12.58
2022-10-19T02:03:40.391Z,12.39
2022-10-19T02:06:10.033Z,12.24
2022-10-19T02:08:56.949Z,12.35
2022-10-19T02:11:23.847Z,12.67
2022-10-19T02:13:54.805Z,12.74
2022-10-19T02:16:27.126Z,12.94
2022-10-19T02:18:55.299Z,13.15
2022-10-19T02:21:22.020Z,13.06
2022-10-19T02:23:50.585Z,13.24
2022-10-19T02:26:21.395Z,13.33
2022-10-19T02:28:48.661Z,13.63
2022-10-19T02:31:15.468Z,13.90
2022-10-19T02:33:42.520Z,14.05
2022-10-19T02:36:09.268Z,14.00
2022-10-19T02:38:36.051Z,14.18
2022-10-19T02:41:16.663Z,14.39
2022-10-19T02:43:45.715Z,14.52
2022-10-19T02:46:31.631Z,14.57
2022-10-19T02:48:59.358Z,14.64
2022-10-19T02:51:30.792Z,14.79
2022-10-19T02:53:59.019Z,15.11
2022-10-19T02:56:29.387Z,14.99
2022-10-19T02:58:56.644Z,15.14
2022-10-19T03:01:24.032Z,15.13
2022-10-19T03:03:51.608Z,14.97
2022-10-19T03:06:18.359Z,14.96
2022-10-19T03:08:46.370Z,15.18
2022-10-19T03:11:14.561Z,15.02
2022-10-19T03:13:41.781Z,14.95
2022-10-19T03:16:09.899Z,15.09
2022-10-19T03:18:36.524Z,15.32
2022-10-19T03:21:04.144Z,15.33
2022-10-19T03:23:30.775Z,15.25
2022-10-19T03:25:57.379Z,15.37
2022-10-19T03:28:23.995Z,15.18
2022-10-19T03:30:50.561Z,15.42
2022-10-19T03:33:17.229Z,15.32
2022-10-19T03:35:43.856Z,15.48
2022-10-19T03:38:10.456Z,15.70
2022-10-19T03:40:37.275Z,15.17
2022-10-19T03:43:04.133Z,15.11
2022-10-19T03:45:30.975Z,15.57
2022-10-19T03:47:57.821Z,15.58
2022-10-19T03:50:24.761Z,15.71
2022-10-19T03:52:53.681Z,15.59
2022-10-19T03:55:20.448Z,16.04
2022-10-19T03:57:47.210Z,15.92
2022-10-19T04:00:14.238Z,15.59
2022-10-19T04:02:41.698Z,16.10
2022-10-19T04:05:08.505Z,16.12
2022-10-19T04:07:35.367Z,16.26
2022-10-19T04:10:02.140Z,15.72
2022-10-19T04:12:28.723Z,15.74
2022-10-19T04:14:57.587Z,16.21
2022-10-19T04:17:24.753Z,16.22
2022-10-19T04:19:51.471Z,15.40
2022-10-19T04:22:18.085Z,16.13
2022-10-19T04:24:44.668Z,16.04
2022-10-19T04:27:11.311Z,16.12
2022-10-19T04:29:37.969Z,15.98
2022-10-19T04:32:04.598Z,16.37
2022-10-19T04:34:31.580Z,16.28
2022-10-19T04:36:59.702Z,16.37
2022-10-19T04:39:26.454Z,16.61
2022-10-19T04:41:53.131Z,16.57
2022-10-19T04:44:19.999Z,16.80
2022-10-19T04:46:46.764Z,16.73
2022-10-19T04:49:16.443Z,16.54
2022-10-19T04:51:46.066Z,16.56
2022-10-19T04:54:12.711Z,15.79
2022-10-19T04:56:39.736Z,16.27
2022-10-19T04:59:06.364Z,16.21
2022-10-19T05:01:33.041Z,15.86
2022-10-19T05:04:01.028Z,15.99
2022-10-19T05:06:28.114Z,16.47
2022-10-19T05:08:54.893Z,16.38
2022-10-19T05:11:21.585Z,16.74
2022-10-19T05:13:48.562Z,16.58
2022-10-19T05:16:16.830Z,16.88
2022-10-19T05:18:46.563Z,16.40
2022-10-19T05:21:13.863Z,16.39
2022-10-19T05:23:41.053Z,16.15
2022-10-19T05:26:10.551Z,16.75
2022-10-19T05:31:40.609Z,16.13
2022-10-19T05:34:19.190Z,16.35
2022-10-19T05:36:49.091Z,16.14
2022-10-19T05:39:17.143Z,15.49
2022-10-19T05:41:44.860Z,15.97
2022-10-19T05:44:18.283Z,16.24
2022-10-19T05:46:45.187Z,16.75
2022-10-19T05:49:39.566Z,16.99
2022-10-19T05:52:06.475Z,17.17
2022-10-19T05:54:33.412Z,17.90
2022-10-19T05:57:02.418Z,18.19
2022-10-19T05:59:36.157Z,18.99
2022-10-19T06:02:11.192Z,19.50
2022-10-19T06:04:47.229Z,19.70
2022-10-19T06:10:36.740Z,19.58
2022-10-19T06:13:03.860Z,19.61
2022-10-19T06:15:40.256Z,18.84
2022-10-19T06:18:17.979Z,19.19
2022-10-19T06:20:44.947Z,20.08
2022-10-19T06:23:13.605Z,19.52
2022-10-19T06:26:05.856Z,19.90
2022-10-19T06:28:42.589Z,19.61
2022-10-19T06:31:25.423Z,20.36
2022-10-19T06:33:56.017Z,19.92
2022-10-19T06:36:41.575Z,20.06
2022-10-19T06:39:26.064Z,19.46
2022-10-19T06:42:01.967Z,20.19
2022-10-19T06:44:31.748Z,20.82
2022-10-19T06:47:01.317Z,20.76
2022-10-19T06:49:48.083Z,21.22
2022-10-19T06:52:39.687Z,19.88
2022-10-19T06:55:08.741Z,19.64
2022-10-19T06:57:57.900Z,19.74
2022-10-19T07:03:25.666Z,20.97
2022-10-19T07:08:53.438Z,20.37
2022-10-19T07:11:48.182Z,20.84
2022-10-19T07:17:52.679Z,21.08
2022-10-19T07:20:25.586Z,20.53
2022-10-19T07:22:52.527Z,20.09
2022-10-19T07:25:19.329Z,20.72
2022-10-19T07:27:52.088Z,20.18
2022-10-19T07:30:21.288Z,20.98
2022-10-19T07:32:48.117Z,19.39
2022-10-19T07:35:15.587Z,19.47
2022-10-19T07:37:43.787Z,19.22
2022-10-19T07:40:17.125Z,19.22
2022-10-19T07:42:46.357Z,18.64
2022-10-19T07:45:17.400Z,19.09
2022-10-19T07:50:53.040Z,19.17
2022-10-19T07:59:40.044Z,19.29
2022-10-19T08:02:14.305Z,19.74
2022-10-19T08:05:11.587Z,19.68
2022-10-19T08:07:39.103Z,19.68
2022-10-19T08:10:28.714Z,19.85
2022-10-19T08:12:57.673Z,19.74
2022-10-19T08:15:28.762Z,19.86
2022-10-19T08:18:29.204Z,19.78
2022-10-19T08:21:22.289Z,19.73
2022-10-19T08:23:50.696Z,19.94
2022-10-19T08:29:05.643Z,20.91
2022-10-19T08:31:40.903Z,20.78
2022-10-19T08:34:10.448Z,20.94
2022-10-19T08:36:37.478Z,21.14
2022-10-19T08:39:06.883Z,21.44
2022-10-19T08:41:51.978Z,21.69
2022-10-19T08:44:35.914Z,22.62
2022-10-19T08:47:12.524Z,21.88
2022-10-19T08:49:40.581Z,20.78
2022-10-19T08:52:16.532Z,20.75
2022-10-19T08:54:56.130Z,20.68
2022-10-19T08:57:38.400Z,20.49
2022-10-19T09:00:11.601Z,20.83
2022-10-19T09:02:41.472Z,21.37
2022-10-19T09:05:14.281Z,20.93
2022-10-19T09:07:46.085Z,21.90
2022-10-19T09:10:19.368Z,20.90
2022-10-19T09:12:55.132Z,20.63
2022-10-19T09:15:46.142Z,20.98
2022-10-19T09:18:35.179Z,21.02
2022-10-19T09:21:08.936Z,21.05
2022-10-19T09:23:41.513Z,20.51
2022-10-19T09:26:14.175Z,20.94
2022-10-19T09:28:59.855Z,22.05
2022-10-19T09:31:38.276Z,21.97
2022-10-19T09:34:28.040Z,21.82
2022-10-19T09:36:59.329Z,21.13
2022-10-19T09:39:29.795Z,21.38
2022-10-19T09:41:58.015Z,21.72
2022-10-19T09:44:25.708Z,22.29
2022-10-19T09:46:52.788Z,22.15
2022-10-19T09:49:38.051Z,22.39
2022-10-19T09:52:06.425Z,22.25
2022-10-19T09:54:40.399Z,21.54
2022-10-19T09:57:21.650Z,21.34
2022-10-19T09:59:51.509Z,22.33
2022-10-19T10:02:19.806Z,21.66
2022-10-19T10:04:57.178Z,22.07
2022-10-19T10:07:27.001Z,21.52
2022-10-19T10:09:53.801Z,22.67
2022-10-19T10:12:22.963Z,22.53
2022-10-19T10:14:50.152Z,22.80
2022-10-19T10:17:28.451Z,22.52
2022-10-19T10:19:58.289Z,22.89
2022-10-19T10:22:39.378Z,23.46
2022-10-19T10:25:16.533Z,24.02
2022-10-19T10:27:53.659Z,23.41
2022-10-19T10:30:20.776Z,23.72
2022-10-19T10:32:49.661Z,23.99
2022-10-19T10:35:34.605Z,24.58
2022-10-19T10:38:08.576Z,24.12
2022-10-19T10:40:35.345Z,25.00
2022-10-19T10:43:06.259Z,24.77
2022-10-19T10:45:35.861Z,24.75
2022-10-19T10:48:25.794Z,24.46
2022-10-19T10:50:55.392Z,24.10
2022-10-19T10:53:32.547Z,24.73
2022-10-19T10:55:59.485Z,24.60
2022-10-19T10:58:37.911Z,22.94
2022-10-19T11:01:08.094Z,23.31
2022-10-19T11:03:49.394Z,22.27
2022-10-19T11:09:08.376Z,22.09
2022-10-19T11:11:42.525Z,22.43
2022-10-19T11:14:30.633Z,23.30
2022-10-19T11:16:59.872Z,23.52
2022-10-19T11:19:27.712Z,24.09
2022-10-19T11:22:13.267Z,23.96
2022-10-19T11:24:46.367Z,23.61
2022-10-19T11:27:34.496Z,23.45
2022-10-19T11:30:09.977Z,23.37
2022-10-19T11:32:52.140Z,22.83
2022-10-19T11:35:45.830Z,22.97
2022-10-19T11:38:31.587Z,22.61
2022-10-19T11:41:22.591Z,22.77
2022-10-19T11:43:57.221Z,23.30
2022-10-19T11:46:29.229Z,23.94
2022-10-19T11:49:03.782Z,23.57
2022-10-19T11:51:35.519Z,23.13
2022-10-19T11:54:02.439Z,22.13
2022-10-19T11:57:08.299Z,21.88
2022-10-19T12:00:00.231Z,22.04
2022-10-19T12:02:38.386Z,23.01
2022-10-19T12:05:10.715Z,22.71
2022-10-19T12:07:46.439Z,22.76
2022-10-19T12:10:21.176Z,22.83
2022-10-19T12:12:59.590Z,23.60
2022-10-19T12:15:49.747Z,23.66
2022-10-19T12:18:21.319Z,23.96
2022-10-19T12:20:50.335Z,24.12
2022-10-19T12:23:23.691Z,23.31
2022-10-19T12:25:51.571Z,23.56
2022-10-19T12:28:22.040Z,23.64
2022-10-19T12:30:49.167Z,23.28
2022-10-19T12:33:20.923Z,23.67
2022-10-19T12:36:01.645Z,23.67
2022-10-19T12:38:34.991Z,23.83
2022-10-19T12:41:14.630Z,23.11
2022-10-19T12:43:45.222Z,22.92
2022-10-19T12:46:19.754Z,22.15
2022-10-19T12:48:46.661Z,22.13
2022-10-19T12:51:15.630Z,21.90
2022-10-19T12:53:44.590Z,21.71
2022-10-19T12:56:15.384Z,22.12
2022-10-19T12:58:48.144Z,21.98
2022-10-19T13:01:31.385Z,21.88
2022-10-19T13:04:16.110Z,21.28
2022-10-19T13:07:05.516Z,21.92
2022-10-19T13:09:37.214Z,21.95
2022-10-19T13:12:20.006Z,22.45
2022-10-19T13:14:50.948Z,22.38
2022-10-19T13:17:52.282Z,22.01
2022-10-19T13:20:20.586Z,21.92
2022-10-19T13:23:22.347Z,22.17
2022-10-19T13:26:09.184Z,22.49
2022-10-19T13:28:40.249Z,22.66
2022-10-19T13:31:25.607Z,23.00
2022-10-19T13:33:55.068Z,22.98
2022-10-19T13:36:25.891Z,23.31
2022-10-19T13:38:59.214Z,23.21
2022-10-19T13:41:27.639Z,22.14
2022-10-19T13:44:19.601Z,22.04
2022-10-19T13:46:51.663Z,21.84
2022-10-19T13:49:33.969Z,21.30
2022-10-19T13:52:13.372Z,21.49
2022-10-19T13:54:47.499Z,21.36
2022-10-19T13:57:34.445Z,21.36
2022-10-19T14:00:09.968Z,21.38
2022-10-19T14:03:01.951Z,20.98
2022-10-19T14:05:29.630Z,21.81
2022-10-19T14:08:15.851Z,21.35
2022-10-19T14:11:00.210Z,21.84
2022-10-19T14:13:28.474Z,21.81
2022-10-19T14:15:56.949Z,22.24
2022-10-19T14:18:25.246Z,22.81
2022-10-19T14:21:06.591Z,23.05
2022-10-19T14:23:34.607Z,22.91
2022-10-19T14:26:15.779Z,22.34
2022-10-19T14:28:43.301Z,21.82
2022-10-19T14:31:11.411Z,21.41
2022-10-19T14:33:39.793Z,21.04
2022-10-19T14:36:08.077Z,20.83
2022-10-19T14:38:37.519Z,20.86
2022-10-19T14:41:05.657Z,20.61
2022-10-19T14:43:33.434Z,20.68
2022-10-19T14:46:12.511Z,21.29
2022-10-19T14:48:45.703Z,21.69
2022-10-19T14:51:21.661Z,21.43
2022-10-19T14:53:48.372Z,21.10
2022-10-19T14:56:30.087Z,21.61
2022-10-19T14:58:59.543Z,21.86
2022-10-19T15:01:26.891Z,22.42
2022-10-19T15:03:53.914Z,22.67
2022-10-19T15:06:28.742Z,22.64
2022-10-19T15:09:01.921Z,22.19
2022-10-19T15:11:28.714Z,21.76
2022-10-19T15:14:15.089Z,22.00
2022-10-19T15:16:54.135Z,22.19
2022-10-19T15:19:29.265Z,22.15
2022-10-19T15:22:14.450Z,22.45
2022-10-19T15:24:55.320Z,22.49
2022-10-19T15:27:28.685Z,22.51
2022-10-19T15:29:56.930Z,22.42
2022-10-19T15:32:25.443Z,22.28
2022-10-19T15:34:52.818Z,22.11
2022-10-19T15:37:21.737Z,21.72
2022-10-19T15:39:48.991Z,22.03
2022-10-19T15:42:35.662Z,21.64
2022-10-19T15:45:03.019Z,21.10
2022-10-19T15:47:30.512Z,20.41
2022-10-19T15:50:01.463Z,21.01
2022-10-19T15:52:29.600Z,21.37
2022-10-19T15:54:57.457Z,21.28
2022-10-19T15:57:31.875Z,21.45
2022-10-19T16:00:00.697Z,21.53
2022-10-19T16:02:27.478Z,21.55
2022-10-19T16:04:54.584Z,21.51
2022-10-19T16:07:41.533Z,21.64
2022-10-19T16:10:09.505Z,21.49
2022-10-19T16:12:36.173Z,21.50
2022-10-19T16:15:02.854Z,21.52
2022-10-19T16:17:29.534Z,21.50
2022-10-19T16:19:56.138Z,21.54
2022-10-19T16:22:22.816Z,21.36
2022-10-19T16:24:49.499Z,21.24
2022-10-19T16:27:16.568Z,21.04
2022-10-19T16:29:44.603Z,20.82
2022-10-19T16:32:11.630Z,20.92
2022-10-19T16:34:38.756Z,20.83
2022-10-19T16:37:07.093Z,20.62
2022-10-19T16:39:34.262Z,20.42
2022-10-19T16:42:01.787Z,20.24
2022-10-19T16:44:28.746Z,20.24
2022-10-19T16:46:58.671Z,19.89
2022-10-19T16:49:25.835Z,19.94
2022-10-19T16:51:56.273Z,19.92
2022-10-19T16:54:29.844Z,19.87
2022-10-19T16:56:56.971Z,19.92
2022-10-19T16:59:25.009Z,19.77
2022-10-19T17:01:51.865Z,19.76
2022-10-19T17:04:18.626Z,19.57
2022-10-19T17:06:45.548Z,19.50
2022-10-19T17:11:59.209Z,19.43
2022-10-19T17:14:25.998Z,19.35
2022-10-19T17:16:52.818Z,19.05
2022-10-19T17:19:19.697Z,18.99
2022-10-19T17:21:49.528Z,19.07
2022-10-19T17:24:22.028Z,19.01
2022-10-19T17:26:50.517Z,18.88
2022-10-19T17:29:18.363Z,18.72
2022-10-19T17:31:45.172Z,17.87
2022-10-19T17:34:12.235Z,18.21
2022-10-19T17:39:15.641Z,18.12
2022-10-19T17:41:42.664Z,17.68
2022-10-19T17:44:09.412Z,18.04
2022-10-19T17:46:36.441Z,18.31
2022-10-19T17:49:03.595Z,17.94
2022-10-19T17:51:31.470Z,17.37
2022-10-19T17:53:59.969Z,17.55
2022-10-19T17:56:27.026Z,17.44
2022-10-19T17:58:54.048Z,17.05
2022-10-19T18:01:23.044Z,17.08
2022-10-19T18:03:50.571Z,17.01
2022-10-19T18:06:18.666Z,17.51
2022-10-19T18:08:47.125Z,17.40
2022-10-19T18:11:18.547Z,17.23
2022-10-19T18:13:45.428Z,16.74
2022-10-19T18:16:13.716Z,16.14
2022-10-19T18:18:41.803Z,16.38
2022-10-19T18:21:12.485Z,16.74
2022-10-19T18:23:39.725Z,16.87
2022-10-19T18:26:08.106Z,16.40
2022-10-19T18:28:36.411Z,16.14
2022-10-19T18:31:11.168Z,16.27
2022-10-19T18:33:38.434Z,16.50
2022-10-19T18:36:08.207Z,16.76
2022-10-19T18:38:34.950Z,16.54
2022-10-19T18:41:06.360Z,17.00
2022-10-19T18:43:33.209Z,16.56
2022-10-19T18:46:00.547Z,16.30
2022-10-19T18:48:28.368Z,16.78
2022-10-19T18:50:55.326Z,17.08
2022-10-19T18:53:22.383Z,16.69
2022-10-19T18:55:59.203Z,16.70
2022-10-19T18:58:26.411Z,16.93
2022-10-19T19:01:13.430Z,16.84
2022-10-19T19:03:41.845Z,16.57
2022-10-19T19:06:10.725Z,15.94
2022-10-19T19:08:37.621Z,15.63
2022-10-19T19:11:15.464Z,15.91
2022-10-19T19:13:42.744Z,15.34
2022-10-19T19:16:09.879Z,15.35
2022-10-19T19:18:36.773Z,15.61
2022-10-19T19:21:04.618Z,15.15
2022-10-19T19:23:31.812Z,15.48
2022-10-19T19:25:58.778Z,15.52
2022-10-19T19:28:25.556Z,15.36
2022-10-19T19:30:52.285Z,15.63
2022-10-19T19:33:19.144Z,16.32
2022-10-19T19:35:46.552Z,15.55
2022-10-19T19:38:14.017Z,15.72
2022-10-19T19:40:45.178Z,15.73
2022-10-19T19:43:13.025Z,15.38
2022-10-19T19:45:40.254Z,15.44
2022-10-19T19:48:07.660Z,15.44
2022-10-19T19:50:34.950Z,15.97
2022-10-19T19:53:02.365Z,16.25
2022-10-19T19:55:29.128Z,16.38
2022-10-19T19:57:55.862Z,16.52
2022-10-19T20:00:23.113Z,16.48
2022-10-19T20:02:53.466Z,16.25
2022-10-19T20:05:20.325Z,16.44
2022-10-19T20:07:47.150Z,15.64
2022-10-19T20:10:16.826Z,15.78
2022-10-19T20:12:43.813Z,15.67
2022-10-19T20:15:11.152Z,15.15
2022-10-19T20:17:38.369Z,15.59
2022-10-19T20:20:05.497Z,15.68
2022-10-19T20:22:32.196Z,15.21
2022-10-19T20:24:58.772Z,15.63
2022-10-19T20:27:26.149Z,15.79
2022-10-19T20:29:58.732Z,15.78
2022-10-19T20:32:26.058Z,15.54
2022-10-19T20:34:53.120Z,15.59
2022-10-19T20:37:20.122Z,15.74
2022-10-19T20:39:46.986Z,15.79
2022-10-19T20:42:14.272Z,15.96
2022-10-19T20:44:41.128Z,15.67
2022-10-19T20:47:07.798Z,15.83
2022-10-19T20:49:34.657Z,15.51
2022-10-19T20:52:01.272Z,15.93
2022-10-19T20:54:28.014Z,15.86
2022-10-19T20:56:54.704Z,15.36
2022-10-19T20:59:22.255Z,15.52
2022-10-19T21:01:50.102Z,15.61
2022-10-19T21:04:16.804Z,15.60
2022-10-19T21:06:44.865Z,15.59
2022-10-19T21:09:12.523Z,14.93
2022-10-19T21:11:40.393Z,14.77
2022-10-19T21:14:08.748Z,15.29
2022-10-19T21:16:35.564Z,15.13
2022-10-19T21:19:03.899Z,15.36
2022-10-19T21:21:32.126Z,15.15
2022-10-19T21:24:08.905Z,14.86
2022-10-19T21:26:36.169Z,14.92
2022-10-19T21:29:03.396Z,14.73
2022-10-19T21:31:30.817Z,14.97
2022-10-19T21:33:57.792Z,14.87
2022-10-19T21:36:27.738Z,14.92
2022-10-19T21:38:54.350Z,14.85
2022-10-19T21:41:25.343Z,14.88
2022-10-19T21:43:53.192Z,14.91
2022-10-19T21:46:20.417Z,14.94
2022-10-19T21:48:47.412Z,14.96
2022-10-19T21:51:17.053Z,14.45
2022-10-19T21:53:43.976Z,14.62
2022-10-19T21:56:10.602Z,14.00
2022-10-19T21:58:37.232Z,14.36
2022-10-19T22:01:07.558Z,14.37
2022-10-19T22:03:34.667Z,14.46
2022-10-19T22:06:01.400Z,14.13
2022-10-19T22:08:28.302Z,14.23
2022-10-19T22:10:54.969Z,14.29
2022-10-19T22:13:21.577Z,14.14
2022-10-19T22:15:55.661Z,14.29
2022-10-19T22:30:41.498Z,13.88
2022-10-19T22:33:11.879Z,14.08
2022-10-19T22:35:38.840Z,14.09
2022-10-19T22:38:07.098Z,13.99
2022-10-19T22:40:36.574Z,13.80
2022-10-19T22:43:06.724Z,13.88
2022-10-19T22:45:36.213Z,13.93
2022-10-19T22:48:05.442Z,13.89
2022-10-19T22:50:37.992Z,13.80
2022-10-19T22:53:12.172Z,13.54
2022-10-19T22:55:49.942Z,13.52
2022-10-19T22:58:25.006Z,12.49
2022-10-19T23:01:07.677Z,12.57
2022-10-19T23:03:34.429Z,12.42
2022-10-19T23:06:01.047Z,12.69
2022-10-19T23:08:28.190Z,12.64
2022-10-19T23:10:54.847Z,12.75
2022-10-19T23:13:21.756Z,12.75
2022-10-19T23:15:48.426Z,12.47
2022-10-19T23:18:15.145Z,12.65
2022-10-19T23:20:41.766Z,12.85
2022-10-19T23:23:09.108Z,11.48
2022-10-19T23:25:36.966Z,11.01
2022-10-19T23:28:25.800Z,12.29
2022-10-19T23:30:52.605Z,12.57
2022-10-19T23:33:19.248Z,12.43
2022-10-19T23:35:46.086Z,12.54
2022-10-19T23:38:12.708Z,12.51
2022-10-19T23:40:39.439Z,12.35
2022-10-19T23:43:06.446Z,12.53
2022-10-19T23:45:33.071Z,12.24
2022-10-19T23:47:59.676Z,12.00
2022-10-19T23:50:26.342Z,11.54
2022-10-19T23:52:52.945Z,11.46
2022-10-19T23:55:19.570Z,11.72
2022-10-19T23:57:46.216Z,11.89
